Time;durP1;ratioP1;P1;durP2;ratioP2;P2;SDS_P1;SDS_P2;PMS_P1;PMS_P2;Temp;Humidity;BMP_temperature;BMP_pressure;BME280_temperature;BME280_humidity;BME280_pressure;Samples;Min_cycle;Max_cycle;Signal;HPM_P1;HPM_P2
2022/10/31 00:01:26;;;;;;;7.75;3.90;;;;;;;16.53;68.39;102007.78;5092239;28;20131;-64
2022/10/31 00:03:54;;;;;;;9.63;4.38;;;;;;;16.53;68.34;102005.91;5092655;28;20051;-63
2022/10/31 00:06:22;;;;;;;10.38;4.50;;;;;;;16.53;68.45;102010.50;5090726;28;20067;-64
2022/10/31 00:08:53;;;;;;;7.63;3.95;;;;;;;16.51;68.37;102010.72;5096548;28;20044;-64
2022/10/31 00:11:23;;;;;;;9.40;4.10;;;;;;;16.50;68.47;102013.69;5089407;28;20044;-63
2022/10/31 00:13:51;;;;;;;8.32;4.20;;;;;;;16.49;68.43;102006.59;5094586;28;20052;-64
2022/10/31 00:16:21;;;;;;;10.07;4.68;;;;;;;16.49;68.35;102002.00;5091679;28;20060;-64
2022/10/31 00:18:50;;;;;;;10.98;4.70;;;;;;;16.49;68.41;102006.59;5090749;28;20055;-64
2022/10/31 00:21:18;;;;;;;8.68;4.10;;;;;;;16.48;68.36;102007.66;5094296;28;20040;-64
2022/10/31 00:23:46;;;;;;;9.10;4.78;;;;;;;16.46;68.41;102005.16;5093191;28;20058;-63
2022/10/31 00:26:14;;;;;;;7.95;4.38;;;;;;;16.46;68.33;102007.88;5086884;28;20726;-64
2022/10/31 00:28:43;;;;;;;8.77;3.67;;;;;;;16.45;68.28;102008.13;5092613;28;20087;-63
2022/10/31 00:31:13;;;;;;;7.63;4.45;;;;;;;16.45;68.16;102013.53;5092754;28;20099;-64
2022/10/31 00:33:42;;;;;;;7.70;3.92;;;;;;;16.44;68.29;102003.75;5096236;28;20052;-64
2022/10/31 00:36:13;;;;;;;9.45;4.20;;;;;;;16.43;68.10;102002.94;5095989;28;20058;-64
2022/10/31 00:38:41;;;;;;;7.15;3.95;;;;;;;16.42;68.16;101997.72;5090682;28;20062;-63
2022/10/31 00:41:09;;;;;;;7.68;4.10;;;;;;;16.41;68.14;101996.06;5089054;28;20040;-65
2022/10/31 00:43:36;;;;;;;8.77;4.30;;;;;;;16.40;68.12;101992.53;5086115;28;20055;-64
2022/10/31 00:46:05;;;;;;;9.27;4.80;;;;;;;16.38;68.13;101991.94;5091739;28;20048;-63
2022/10/31 00:48:33;;;;;;;8.45;4.88;;;;;;;16.38;68.05;101994.66;5085776;28;20045;-63
2022/10/31 00:51:01;;;;;;;11.75;4.47;;;;;;;16.38;68.09;101999.25;5085795;28;20098;-64
2022/10/31 00:53:29;;;;;;;8.45;4.10;;;;;;;16.35;67.86;101986.97;5097353;28;20048;-64
2022/10/31 00:55:56;;;;;;;8.70;4.30;;;;;;;16.35;68.18;101992.41;5086811;28;20048;-63
2022/10/31 00:58:24;;;;;;;5.90;3.65;;;;;;;16.34;68.19;101988.03;5094053;28;20060;-63
2022/10/31 01:00:54;;;;;;;8.50;4.15;;;;;;;16.34;68.02;101990.75;5091673;28;20036;-64
2022/10/31 01:03:27;;;;;;;9.13;3.88;;;;;;;16.33;68.19;102010.81;5089177;28;20070;-64
2022/10/31 01:06:00;;;;;;;8.55;4.28;;;;;;;16.32;68.11;102009.16;5097620;28;20058;-64
2022/10/31 01:08:28;;;;;;;7.47;4.20;;;;;;;16.31;68.07;101999.34;5090769;28;20040;-64
2022/10/31 01:11:01;;;;;;;8.43;5.07;;;;;;;16.31;68.23;101995.81;5092857;28;20055;-64
2022/10/31 01:13:28;;;;;;;6.85;4.20;;;;;;;16.28;68.04;101978.94;5093117;28;20048;-63
2022/10/31 01:15:57;;;;;;;8.38;4.50;;;;;;;16.27;67.98;101977.28;5095821;28;20524;-63
2022/10/31 01:18:26;;;;;;;8.13;4.50;;;;;;;16.28;68.06;101991.69;5085394;28;20693;-64
2022/10/31 01:21:13;;;;;;;7.40;3.72;;;;;;;16.25;68.17;101976.69;5085997;28;20052;-63
2022/10/31 01:23:41;;;;;;;7.30;4.63;;;;;;;16.25;68.10;101976.69;5083892;28;20067;-63
2022/10/31 01:26:11;;;;;;;6.10;3.78;;;;;;;16.23;68.05;101980.69;5093412;28;20048;-64
2022/10/31 01:28:47;;;;;;;7.10;4.28;;;;;;;16.23;68.02;101983.41;5088981;28;20048;-64
2022/10/31 01:31:17;;;;;;;10.23;4.67;;;;;;;16.16;67.92;101980.78;5090099;28;20132;-63
2022/10/31 01:33:46;;;;;;;11.18;4.78;;;;;;;16.20;68.06;101986.59;5098038;28;20362;-63
2022/10/31 01:36:16;;;;;;;9.93;4.60;;;;;;;16.19;67.96;101998.50;5087547;28;20051;-64
2022/10/31 01:38:44;;;;;;;8.23;3.97;;;;;;;16.17;67.89;101996.00;5083859;28;20058;-64
2022/10/31 01:41:16;;;;;;;7.32;3.95;;;;;;;16.16;68.05;101988.94;5087895;28;20045;-64
2022/10/31 01:43:49;;;;;;;11.52;4.47;;;;;;;16.15;67.97;101995.41;5084241;28;20060;-63
2022/10/31 01:46:21;;;;;;;10.93;4.80;;;;;;;16.14;67.95;101993.75;5087985;28;20045;-64
2022/10/31 01:48:51;;;;;;;7.93;4.55;;;;;;;16.13;67.79;101991.28;5097849;28;20059;-64
2022/10/31 01:51:23;;;;;;;9.05;3.80;;;;;;;16.11;67.93;101983.38;5090462;28;20067;-63
2022/10/31 01:53:54;;;;;;;10.57;4.32;;;;;;;16.10;67.88;101995.28;5098299;28;20054;-64
2022/10/31 01:56:22;;;;;;;9.50;4.70;;;;;;;16.09;67.93;101990.91;5097372;28;20051;-63
2022/10/31 01:58:50;;;;;;;7.45;4.47;;;;;;;16.07;67.90;101984.88;5088409;28;20052;-64
2022/10/31 02:01:18;;;;;;;10.75;4.80;;;;;;;16.07;67.80;101981.34;5094035;28;20036;-63
2022/10/31 02:03:48;;;;;;;8.48;4.82;;;;;;;16.06;67.66;101985.13;5099140;28;20272;-63
2022/10/31 02:06:27;;;;;;;10.40;4.55;;;;;;;16.06;67.82;101979.69;5103940;28;20058;-64
2022/10/31 02:08:58;;;;;;;10.65;4.22;;;;;;;16.05;67.73;101975.34;5097302;28;20060;-63
2022/10/31 02:11:28;;;;;;;15.43;4.72;;;;;;;16.03;67.67;101970.13;5090001;28;20050;-64
2022/10/31 02:13:56;;;;;;;9.68;4.68;;;;;;;16.02;67.88;101968.47;5099475;28;20046;-63
2022/10/31 02:16:24;;;;;;;9.63;4.63;;;;;;;16.01;67.74;101969.53;5095509;28;20048;-64
2022/10/31 02:18:52;;;;;;;8.30;3.75;;;;;;;16.01;67.71;101968.72;5088714;28;20445;-64
2022/10/31 02:21:30;;;;;;;9.02;4.32;;;;;;;16.00;67.75;101970.59;5098591;28;20052;-64
2022/10/31 02:24:38;;;;;;;8.13;4.30;;;;;;;16.00;67.61;101972.47;5094653;28;20044;-63
2022/10/31 02:27:17;;;;;;;9.93;4.55;;;;;;;15.93;67.76;101964.44;5093755;28;20052;-64
2022/10/31 02:30:05;;;;;;;8.43;5.18;;;;;;;15.96;67.54;101980.25;5086178;28;20222;-64
2022/10/31 02:32:46;;;;;;;7.78;4.10;;;;;;;15.96;67.55;101982.97;5089212;28;20055;-64
2022/10/31 02:35:26;;;;;;;7.35;3.95;;;;;;;15.95;67.43;101975.88;5090745;28;20052;-64
2022/10/31 02:38:03;;;;;;;6.85;4.28;;;;;;;15.92;67.63;101979.06;5096224;28;20048;-63
2022/10/31 02:40:34;;;;;;;;;;;;;;;15.91;67.38;101983.66;5089933;28;20052;-64
2022/10/31 02:43:09;;;;;;;8.55;3.92;;;;;;;15.91;67.52;101986.38;5100532;28;19934;-64
2022/10/31 02:45:44;;;;;;;11.75;4.07;;;;;;;15.91;67.37;101974.69;5094691;28;20053;-64
2022/10/31 02:48:19;;;;;;;9.25;4.28;;;;;;;15.89;67.46;101972.22;5091207;28;20050;-64
2022/10/31 02:50:53;;;;;;;9.40;3.75;;;;;;;15.89;67.37;101971.38;5087600;28;20056;-63
2022/10/31 02:53:21;;;;;;;10.30;4.32;;;;;;;15.88;67.27;101969.72;5090903;28;20056;-63
2022/10/31 02:56:01;;;;;;;8.32;4.43;;;;;;;15.87;67.29;101962.66;5098975;28;20055;-63
2022/10/31 02:58:35;;;;;;;7.43;4.53;;;;;;;15.85;67.55;101962.06;5092073;28;20049;-64
2022/10/31 03:01:27;;;;;;;9.90;4.20;;;;;;;15.84;67.49;101954.97;5090658;28;20048;-64
2022/10/31 03:04:15;;;;;;;7.85;4.38;;;;;;;15.83;67.52;101962.28;5089907;28;20056;-63
2022/10/31 03:06:50;;;;;;;7.28;4.38;;;;;;;15.82;67.43;101968.75;5098071;28;20052;-64
2022/10/31 03:09:26;;;;;;;9.63;4.32;;;;;;;15.82;67.47;101967.94;5084830;28;20044;-64
2022/10/31 03:11:59;;;;;;;7.23;4.40;;;;;;;15.81;67.39;101967.09;5091292;28;20044;-63
2022/10/31 03:14:35;;;;;;;7.53;4.80;;;;;;;15.79;67.43;101960.25;5095227;28;21578;-64
2022/10/31 03:17:09;;;;;;;9.70;4.55;;;;;;;15.78;67.51;101967.56;5092507;28;20072;-64
2022/10/31 03:19:40;;;;;;;9.25;4.57;;;;;;;15.77;67.45;101965.91;5089469;28;20060;-63
2022/10/31 03:22:16;;;;;;;10.32;4.65;;;;;;;15.76;67.56;101964.25;5097333;28;20061;-64
2022/10/31 03:24:44;;;;;;;13.63;4.82;;;;;;;15.74;67.46;101955.53;5091423;28;20112;-64
2022/10/31 03:27:17;;;;;;;10.75;4.93;;;;;;;15.73;67.46;101955.75;5088760;28;20040;-64
2022/10/31 03:29:45;;;;;;;7.53;4.60;;;;;;;15.73;67.34;101958.47;5092437;28;20051;-64
2022/10/31 03:32:18;;;;;;;8.18;4.85;;;;;;;15.72;67.47;101956.81;5095874;28;20044;-64
2022/10/31 03:34:48;;;;;;;8.13;4.55;;;;;;;15.70;67.44;101957.03;5086715;28;20044;-64
2022/10/31 03:37:20;;;;;;;11.30;4.85;;;;;;;15.71;67.28;101957.88;5087804;28;20063;-64
2022/10/31 03:39:50;;;;;;;13.63;5.43;;;;;;;15.67;67.40;101960.22;5086691;28;20048;-64
2022/10/31 03:42:22;;;;;;;11.55;4.85;;;;;;;15.68;67.31;101961.03;5093860;28;20505;-63
2022/10/31 03:44:54;;;;;;;9.32;5.00;;;;;;;15.66;67.26;101955.84;5095569;28;20052;-64
2022/10/31 03:47:23;;;;;;;10.70;6.05;;;;;;;15.65;67.29;101948.75;5089212;28;20508;-64
2022/10/31 03:49:52;;;;;;;8.88;4.75;;;;;;;15.65;67.27;101959.59;5084369;28;20052;-63
2022/10/31 03:52:26;;;;;;;10.40;4.97;;;;;;;15.63;67.20;101959.00;5090056;28;20044;-63
2022/10/31 03:54:58;;;;;;;9.05;4.70;;;;;;;15.59;67.12;101957.84;5084195;28;20055;-63
2022/10/31 03:57:30;;;;;;;13.32;4.78;;;;;;;15.60;67.23;101960.28;5097688;28;20048;-64
2022/10/31 04:00:04;;;;;;;8.32;5.10;;;;;;;15.59;67.24;101961.38;5096896;28;20040;-64
2022/10/31 04:02:34;;;;;;;8.23;4.38;;;;;;;15.58;67.25;101957.00;5097513;28;20054;-63
2022/10/31 04:05:05;;;;;;;9.15;5.53;;;;;;;15.58;67.09;101954.31;5084427;28;20052;-64
2022/10/31 04:07:37;;;;;;;8.63;4.82;;;;;;;15.56;66.96;101959.09;5095294;28;20055;-64
2022/10/31 04:10:10;;;;;;;11.18;4.68;;;;;;;15.56;67.08;101967.22;5099790;28;20056;-63
2022/10/31 04:12:40;;;;;;;11.15;4.85;;;;;;;15.48;67.13;101950.44;5097303;28;20161;-64
2022/10/31 04:15:10;;;;;;;8.60;4.95;;;;;;;15.54;67.10;101963.09;5093277;28;20059;-63
2022/10/31 04:17:43;;;;;;;13.85;5.22;;;;;;;15.53;66.86;101964.97;5089958;28;20049;-64
2022/10/31 04:20:16;;;;;;;13.55;5.18;;;;;;;15.53;66.98;101964.13;5089231;28;20040;-64
2022/10/31 04:22:44;;;;;;;9.07;5.30;;;;;;;15.51;67.04;101968.97;5083973;28;20581;-63
2022/10/31 04:25:11;;;;;;;13.32;5.55;;;;;;;15.49;67.06;101971.91;5093934;28;20055;-63
2022/10/31 04:27:39;;;;;;;7.13;4.57;;;;;;;15.50;67.07;101970.00;5091184;28;20056;-63
2022/10/31 04:30:08;;;;;;;10.30;5.22;;;;;;;15.48;67.04;101967.53;5089866;28;20051;-63
2022/10/31 04:32:36;;;;;;;7.13;4.72;;;;;;;15.47;66.98;101965.88;5087368;28;20036;-64
2022/10/31 04:35:04;;;;;;;10.13;4.93;;;;;;;15.46;67.17;101969.63;5092385;28;20052;-63
2022/10/31 04:37:33;;;;;;;8.77;4.63;;;;;;;15.45;67.11;101967.16;5092176;28;20489;-64
2022/10/31 04:40:00;;;;;;;9.70;5.18;;;;;;;15.44;67.06;101969.03;5091897;28;20051;-64
2022/10/31 04:42:30;;;;;;;15.13;5.03;;;;;;;15.43;67.08;101961.97;5088670;28;20044;-64
2022/10/31 04:44:57;;;;;;;8.63;4.38;;;;;;;15.43;67.28;101966.56;5088608;28;20045;-64
2022/10/31 04:47:25;;;;;;;9.68;5.75;;;;;;;15.41;67.19;101966.78;5101974;28;20058;-63
2022/10/31 04:49:53;;;;;;;11.95;5.50;;;;;;;15.40;67.22;101964.28;5086564;28;20060;-63
2022/10/31 04:52:20;;;;;;;7.85;5.05;;;;;;;15.40;67.26;101964.28;5093679;28;20049;-64
2022/10/31 04:54:49;;;;;;;10.57;5.22;;;;;;;15.40;67.18;101965.13;5090120;28;20049;-63
2022/10/31 04:57:17;;;;;;;10.52;5.32;;;;;;;15.39;67.23;101957.22;5085340;28;20041;-64
2022/10/31 04:59:45;;;;;;;14.57;5.63;;;;;;;15.38;67.18;101952.84;5096294;28;20146;-64
2022/10/31 05:02:12;;;;;;;13.82;5.20;;;;;;;15.38;67.12;101959.09;5087950;28;20049;-63
2022/10/31 05:04:40;;;;;;;13.93;6.00;;;;;;;15.36;67.17;101958.50;5092104;28;20355;-64
2022/10/31 05:07:08;;;;;;;9.73;5.55;;;;;;;15.36;67.18;101955.78;5095181;28;20067;-64
2022/10/31 05:09:35;;;;;;;9.80;5.45;;;;;;;15.36;67.10;101957.69;5086373;28;20469;-64
2022/10/31 05:12:05;;;;;;;7.80;5.57;;;;;;;15.36;67.29;101963.09;5083797;28;20048;-67
2022/10/31 05:14:32;;;;;;;10.35;5.43;;;;;;;15.34;67.25;101957.91;5085543;28;20051;-64
2022/10/31 05:17:00;;;;;;;8.15;5.70;;;;;;;15.33;67.08;101950.81;5084900;28;20048;-65
2022/10/31 05:19:28;;;;;;;7.72;5.35;;;;;;;15.33;67.09;101953.53;5089233;28;20054;-65
2022/10/31 05:21:55;;;;;;;12.35;5.50;;;;;;;15.32;66.96;101953.75;5092637;28;20486;-64
2022/10/31 05:24:23;;;;;;;13.63;5.70;;;;;;;15.31;66.97;101955.66;5094107;28;20044;-64
2022/10/31 05:26:51;;;;;;;10.38;6.07;;;;;;;15.29;66.99;101950.44;5095344;28;20048;-64
2022/10/31 05:29:20;;;;;;;11.65;5.75;;;;;;;15.28;67.32;101953.38;5095683;28;20048;-65
2022/10/31 05:31:47;;;;;;;11.68;5.95;;;;;;;15.28;67.00;101946.09;5096534;28;20060;-64
2022/10/31 05:34:15;;;;;;;12.95;6.28;;;;;;;15.27;66.96;101940.91;5088291;28;20550;-64
2022/10/31 05:36:43;;;;;;;18.88;6.65;;;;;;;15.26;67.14;101936.53;5094542;28;20071;-65
2022/10/31 05:39:10;;;;;;;11.85;5.53;;;;;;;15.25;66.87;101943.00;5097248;28;20048;-65
2022/10/31 05:41:38;;;;;;;10.38;5.68;;;;;;;15.23;67.03;101934.28;5091671;28;20056;-64
2022/10/31 05:44:06;;;;;;;11.00;5.60;;;;;;;15.21;66.96;101934.50;5097153;28;20469;-64
2022/10/31 05:46:35;;;;;;;12.05;6.45;;;;;;;15.22;66.96;101944.28;5095352;28;20080;-64
2022/10/31 05:49:02;;;;;;;13.40;5.82;;;;;;;15.21;66.94;101941.81;5099469;28;20126;-64
2022/10/31 05:51:30;;;;;;;8.50;5.47;;;;;;;15.20;67.00;101937.44;5098653;28;20049;-64
2022/10/31 05:53:58;;;;;;;10.43;5.93;;;;;;;15.19;67.13;101936.63;5097985;28;20063;-64
2022/10/31 05:56:25;;;;;;;13.90;6.68;;;;;;;15.17;66.88;101927.88;5095357;28;20052;-64
2022/10/31 05:58:53;;;;;;;9.75;5.70;;;;;;;15.17;66.82;101921.66;5092624;28;20048;-62
2022/10/31 06:01:21;;;;;;;9.30;5.70;;;;;;;15.16;66.99;101917.28;5094939;28;20058;-64
2022/10/31 06:03:50;;;;;;;11.02;6.03;;;;;;;15.15;66.98;101921.03;5091985;28;20040;-63
2022/10/31 06:06:17;;;;;;;12.25;6.07;;;;;;;15.15;66.67;101924.56;5094393;28;20072;-64
2022/10/31 06:08:45;;;;;;;10.85;6.50;;;;;;;15.14;66.75;101922.09;5093578;28;20044;-64
2022/10/31 06:11:13;;;;;;;8.77;5.50;;;;;;;15.14;66.94;101919.38;5098349;28;20055;-62
2022/10/31 06:13:40;;;;;;;14.93;5.95;;;;;;;15.13;66.56;101917.72;5089548;28;20040;-63
2022/10/31 06:16:08;;;;;;;9.95;6.20;;;;;;;15.12;66.71;101916.91;5098193;28;20488;-63
2022/10/31 06:18:36;;;;;;;10.40;5.93;;;;;;;15.10;66.75;101919.00;5093794;28;20048;-63
2022/10/31 06:21:05;;;;;;;9.05;5.72;;;;;;;15.09;66.57;101914.66;5091255;28;20516;-62
2022/10/31 06:23:33;;;;;;;12.38;5.95;;;;;;;15.08;66.91;101921.13;5089968;28;20047;-62
2022/10/31 06:26:00;;;;;;;9.32;5.88;;;;;;;15.09;66.67;101916.53;5091795;28;20055;-61
2022/10/31 06:28:28;;;;;;;14.18;6.47;;;;;;;15.07;66.71;101916.75;5091262;28;20040;-63
2022/10/31 06:30:56;;;;;;;10.82;6.25;;;;;;;15.07;66.76;101927.59;5093350;28;20056;-64
2022/10/31 06:33:24;;;;;;;8.88;5.95;;;;;;;15.07;66.63;101926.75;5092011;28;20048;-63
2022/10/31 06:35:51;;;;;;;13.48;6.53;;;;;;;15.06;66.79;101925.94;5088605;28;20040;-61
2022/10/31 06:38:20;;;;;;;9.32;5.93;;;;;;;15.05;66.52;101921.56;5096624;28;20055;-64
2022/10/31 06:40:48;;;;;;;13.25;6.05;;;;;;;15.04;66.59;101925.31;4745234;28;10000562;-64
2022/10/31 06:43:16;;;;;;;11.48;6.40;;;;;;;15.05;66.92;101923.44;5093968;28;20051;-63
2022/10/31 06:45:43;;;;;;;12.48;6.30;;;;;;;15.03;66.80;101925.56;5090448;28;20055;-64
2022/10/31 06:48:11;;;;;;;10.55;6.88;;;;;;;15.02;66.65;101918.47;5086495;28;20059;-63
2022/10/31 06:50:44;;;;;;;12.55;6.22;;;;;;;15.01;66.56;101917.66;5083648;28;20054;-64
2022/10/31 06:53:13;;;;;;;9.10;5.75;;;;;;;15.00;66.72;101921.41;5089361;28;20055;-64
2022/10/31 06:55:42;;;;;;;8.73;5.78;;;;;;;15.00;67.02;101926.00;5089632;28;20394;-62
2022/10/31 06:58:11;;;;;;;10.35;6.15;;;;;;;14.99;66.71;101919.75;5089506;28;20059;-64
2022/10/31 07:00:39;;;;;;;9.18;5.85;;;;;;;15.00;66.76;101917.88;5085803;28;20060;-63
2022/10/31 07:03:10;;;;;;;13.20;6.55;;;;;;;14.99;66.90;101922.47;5081373;28;20800;-63
2022/10/31 07:05:38;;;;;;;12.25;7.30;;;;;;;14.98;66.71;101912.69;5079737;28;20131;-64
2022/10/31 07:08:08;;;;;;;10.02;6.25;;;;;;;14.97;66.74;101917.28;5090179;28;20113;-63
2022/10/31 07:10:37;;;;;;;11.82;6.97;;;;;;;14.96;66.93;101925.63;5088557;28;20055;-64
2022/10/31 07:13:14;;;;;;;17.25;7.22;;;;;;;14.92;67.06;101916.28;5102652;28;20048;-64
2022/10/31 07:15:43;;;;;;;12.68;7.32;;;;;;;14.92;67.13;101919.00;5087802;28;20044;-63
2022/10/31 07:18:12;;;;;;;10.68;6.35;;;;;;;14.91;67.21;101920.88;5087494;28;20536;-64
2022/10/31 07:20:40;;;;;;;12.10;6.35;;;;;;;14.91;67.17;101920.06;5087790;28;20055;-63
2022/10/31 07:23:09;;;;;;;14.35;6.55;;;;;;;14.91;67.23;101920.06;5095538;28;20120;-64
2022/10/31 07:25:37;;;;;;;10.95;6.18;;;;;;;14.92;67.22;101927.13;5093304;28;20094;-63
2022/10/31 07:28:05;;;;;;;9.43;6.28;;;;;;;14.87;67.26;101914.25;5091439;28;20044;-64
2022/10/31 07:30:34;;;;;;;15.15;7.05;;;;;;;14.93;67.29;101932.31;5090768;28;20048;-63
2022/10/31 07:33:02;;;;;;;12.55;6.55;;;;;;;14.92;67.40;101933.38;5094928;28;20048;-63
2022/10/31 07:35:30;;;;;;;12.57;6.35;;;;;;;14.90;67.10;101927.34;5088737;28;20383;-63
2022/10/31 07:38:07;;;;;;;12.50;6.68;;;;;;;14.92;67.37;101932.53;5094227;28;20416;-64
2022/10/31 07:40:34;;;;;;;13.00;6.10;;;;;;;14.91;67.31;101931.72;5090936;28;20043;-64
2022/10/31 07:43:02;;;;;;;15.23;7.20;;;;;;;14.90;67.20;101932.75;5096553;28;20052;-64
2022/10/31 07:45:30;;;;;;;13.70;6.40;;;;;;;14.90;67.24;101929.22;5090182;28;20055;-64
2022/10/31 07:47:59;;;;;;;12.35;6.70;;;;;;;14.88;67.42;101929.44;5091048;28;20453;-65
2022/10/31 07:50:29;;;;;;;16.50;6.70;;;;;;;14.88;67.41;101936.75;5090349;28;20058;-64
2022/10/31 07:53:00;;;;;;;12.20;7.55;;;;;;;14.85;67.99;101929.91;5099615;28;20050;-72
2022/10/31 07:55:30;;;;;;;16.50;7.78;;;;;;;14.83;68.19;101940.13;4738553;28;10000560;-62
2022/10/31 07:57:59;;;;;;;12.00;7.15;;;;;;;14.82;68.04;101937.63;5091535;28;20131;-62
2022/10/31 08:00:28;;;;;;;12.43;6.90;;;;;;;14.80;67.92;101942.44;5088961;28;20139;-63
2022/10/31 08:03:01;;;;;;;11.38;7.05;;;;;;;14.79;68.11;101948.91;5084315;28;20068;-62
2022/10/31 08:05:31;;;;;;;13.23;6.40;;;;;;;14.79;68.01;101951.63;5083117;28;20524;-62
2022/10/31 08:07:58;;;;;;;13.07;6.38;;;;;;;14.77;68.25;101949.13;5085096;28;20062;-63
2022/10/31 08:10:28;;;;;;;9.70;6.80;;;;;;;14.78;68.07;101953.50;5085138;28;20057;-62
2022/10/31 08:12:57;;;;;;;13.05;6.90;;;;;;;14.78;68.14;101948.06;5086390;28;20044;-61
2022/10/31 08:15:25;;;;;;;14.27;6.55;;;;;;;14.77;68.42;101935.59;5088383;28;20504;-63
2022/10/31 08:17:53;;;;;;;10.48;6.32;;;;;;;14.78;68.05;101926.44;5084381;28;20060;-62
2022/10/31 08:20:23;;;;;;;16.92;7.40;;;;;;;14.78;68.12;101923.72;5088797;28;20048;-61
2022/10/31 08:22:55;;;;;;;12.18;6.55;;;;;;;14.81;68.62;101927.88;5092229;28;20082;-62
2022/10/31 08:25:23;;;;;;;10.85;7.00;;;;;;;14.82;68.75;101946.59;5088820;28;20042;-62
2022/10/31 08:27:52;;;;;;;11.05;7.07;;;;;;;14.82;68.62;101927.63;5095290;28;20498;-63
2022/10/31 08:30:20;;;;;;;9.52;6.93;;;;;;;14.86;68.49;101934.25;5093442;28;20067;-61
2022/10/31 08:32:49;;;;;;;10.18;6.35;;;;;;;14.88;68.56;101925.91;5093661;28;20062;-64
2022/10/31 08:35:16;;;;;;;10.10;6.80;;;;;;;14.89;68.56;101927.56;5093321;28;20369;-61
2022/10/31 08:37:45;;;;;;;10.10;6.40;;;;;;;14.90;68.56;101908.41;5087803;28;20050;-62
2022/10/31 08:40:13;;;;;;;10.70;6.43;;;;;;;14.91;68.82;101888.41;5087506;28;20060;-63
2022/10/31 08:42:41;;;;;;;14.73;7.05;;;;;;;14.93;68.76;101886.28;5090364;28;20048;-63
2022/10/31 08:45:09;;;;;;;14.25;6.97;;;;;;;14.94;69.06;101877.13;5086108;28;20078;-62
2022/10/31 08:47:37;;;;;;;12.02;7.50;;;;;;;14.95;68.95;101872.53;5089519;28;20074;-62
2022/10/31 08:50:05;;;;;;;12.52;6.95;;;;;;;14.96;68.84;101891.25;5089305;28;20052;-62
2022/10/31 08:52:33;;;;;;;13.18;6.78;;;;;;;14.97;69.03;101892.09;5089469;28;20044;-63
2022/10/31 08:55:22;;;;;;;12.02;6.82;;;;;;;14.98;68.94;101902.69;5094446;28;20045;-62
2022/10/31 08:57:55;;;;;;;13.52;6.80;;;;;;;14.99;69.06;101889.97;5090438;28;20097;-63
2022/10/31 09:00:23;;;;;;;10.05;6.78;;;;;;;15.05;69.18;101885.53;5092599;28;20063;-63
2022/10/31 09:02:56;;;;;;;15.80;7.93;;;;;;;15.10;68.85;101880.28;5090429;28;20044;-63
2022/10/31 09:05:24;;;;;;;13.50;8.00;;;;;;;15.12;69.21;101887.13;5094211;28;20423;-63
2022/10/31 09:07:52;;;;;;;16.90;8.25;;;;;;;15.16;69.08;101907.28;5095877;28;20134;-64
2022/10/31 09:10:20;;;;;;;11.35;7.30;;;;;;;15.18;69.04;101910.59;5088045;28;20056;-64
2022/10/31 09:12:55;;;;;;;11.75;7.20;;;;;;;15.20;68.82;101915.78;5094975;28;20053;-63
2022/10/31 09:15:23;;;;;;;13.75;7.15;;;;;;;15.19;69.13;101904.13;5095961;28;20052;-63
2022/10/31 09:17:51;;;;;;;15.25;8.05;;;;;;;15.19;69.33;101889.75;5087338;28;20049;-63
2022/10/31 09:20:19;;;;;;;16.92;8.48;;;;;;;15.19;69.54;101866.19;5098237;28;20136;-63
2022/10/31 09:22:47;;;;;;;12.10;8.23;;;;;;;15.19;69.68;101871.63;5092672;28;20062;-63
2022/10/31 09:25:15;;;;;;;13.32;8.27;;;;;;;15.19;69.58;101878.91;5097051;28;20045;-64
2022/10/31 09:27:42;;;;;;;14.25;7.55;;;;;;;15.19;69.43;101868.91;5088603;28;20060;-63
2022/10/31 09:30:12;;;;;;;16.75;7.78;;;;;;;15.19;69.46;101857.25;4736042;28;9999705;-62
2022/10/31 09:32:40;;;;;;;12.65;8.18;;;;;;;15.18;69.72;101837.47;5089491;28;20059;-63
2022/10/31 09:35:08;;;;;;;13.73;7.80;;;;;;;15.19;69.87;101831.00;5093864;28;20040;-62
2022/10/31 09:37:36;;;;;;;14.30;9.10;;;;;;;15.20;70.01;101810.16;5098667;28;20062;-62
2022/10/31 09:40:05;;;;;;;14.63;8.50;;;;;;;15.19;70.19;101828.28;5095271;28;20053;-63
2022/10/31 09:42:48;;;;;;;15.70;7.82;;;;;;;15.19;70.10;101825.59;5092181;28;20039;-63
2022/10/31 09:45:27;;;;;;;16.05;8.05;;;;;;;15.19;70.17;101833.72;5092362;28;20062;-62
2022/10/31 09:48:10;;;;;;;13.05;9.45;;;;;;;15.20;70.20;101845.38;5096104;28;20068;-63
2022/10/31 09:50:47;;;;;;;12.15;7.53;;;;;;;15.20;70.10;101837.25;5089353;28;20060;-63
2022/10/31 09:53:24;;;;;;;15.25;8.07;;;;;;;15.20;70.10;101834.53;5087549;28;20067;-63
2022/10/31 09:55:53;;;;;;;20.27;8.82;;;;;;;15.18;70.09;101823.09;5087821;28;20197;-63
2022/10/31 09:58:25;;;;;;;16.42;8.50;;;;;;;15.20;70.42;101826.41;5086692;28;20056;-62
2022/10/31 10:00:57;;;;;;;22.42;8.88;;;;;;;15.21;70.31;101825.34;5089715;28;20054;-63
2022/10/31 10:03:33;;;;;;;15.38;8.90;;;;;;;15.21;70.23;101814.53;5084925;28;20045;-61
2022/10/31 10:06:12;;;;;;;11.60;7.45;;;;;;;15.21;70.21;101803.69;5087032;28;20056;-63
2022/10/31 10:08:40;;;;;;;14.57;8.35;;;;;;;15.22;70.70;101808.06;5087431;28;20061;-63
2022/10/31 10:11:21;;;;;;;11.70;7.75;;;;;;;15.22;70.41;101805.34;5088610;28;20052;-63
2022/10/31 10:14:01;;;;;;;13.45;8.45;;;;;;;15.22;70.54;101805.34;5091988;28;20050;-62
2022/10/31 10:16:56;;;;;;;15.75;8.68;;;;;;;15.24;70.65;101797.81;5095453;28;20059;-62
2022/10/31 10:19:40;;;;;;;12.98;8.70;;;;;;;15.23;70.66;101801.59;5095230;28;20055;-63
2022/10/31 10:22:13;;;;;;;11.90;7.88;;;;;;;15.24;70.53;101787.81;5093827;28;20040;-64
2022/10/31 10:24:55;;;;;;;11.23;7.03;;;;;;;15.25;70.44;101778.63;5087469;28;20490;-63
2022/10/31 10:27:42;;;;;;;16.52;8.63;;;;;;;15.26;70.53;101780.28;5093368;28;20120;-60
2022/10/31 10:30:14;;;;;;;;;;;;;;;15.27;70.52;101767.56;5088858;28;20514;-64
2022/10/31 10:32:47;;;;;;;12.45;8.25;;;;;;;15.27;70.61;101770.28;5089501;28;19920;-63
2022/10/31 10:35:25;;;;;;;16.10;10.63;;;;;;;15.29;70.67;101768.16;5093771;28;20049;-63
2022/10/31 10:37:57;;;;;;;15.95;9.10;;;;;;;15.30;70.97;101776.06;5090399;28;20044;-62
2022/10/31 10:40:27;;;;;;;16.95;9.10;;;;;;;15.33;71.03;101782.06;5084447;28;20055;-63
2022/10/31 10:43:21;;;;;;;20.67;10.25;;;;;;;15.33;71.00;101771.25;5090944;28;20044;-63
2022/10/31 10:48:45;;;;;;;23.33;9.57;;;;;;;15.37;71.25;101769.72;5089946;28;20052;-62
2022/10/31 10:51:23;;;;;;;16.58;10.45;;;;;;;15.37;71.24;101767.00;5098843;28;20139;-62
2022/10/31 10:54:37;;;;;;;22.98;10.15;;;;;;;15.39;71.23;101757.59;5091023;28;20061;-63
2022/10/31 10:57:23;;;;;;;16.55;9.85;;;;;;;15.40;71.33;101764.66;5090383;28;20044;-63
2022/10/31 10:59:52;;;;;;;17.52;9.93;;;;;;;15.40;71.32;101761.97;5086830;28;20052;-63
2022/10/31 11:02:22;;;;;;;17.75;9.57;;;;;;;15.41;71.21;101755.47;5091331;28;20109;-62
2022/10/31 11:04:54;;;;;;;17.35;9.77;;;;;;;15.42;71.16;101757.13;5089416;28;20063;-62
2022/10/31 11:07:22;;;;;;;17.13;10.27;;;;;;;15.43;71.48;101758.78;5089019;28;20047;-62
2022/10/31 11:09:50;;;;;;;21.80;10.10;;;;;;;15.41;71.21;101749.25;5088528;28;20052;-62
2022/10/31 11:12:22;;;;;;;17.35;9.73;;;;;;;15.46;71.14;101760.19;5095050;28;20047;-62
2022/10/31 11:14:52;;;;;;;16.58;9.55;;;;;;;15.47;71.23;101759.16;5088900;28;20082;-62
2022/10/31 11:17:27;;;;;;;17.02;9.10;;;;;;;15.48;71.17;101748.06;5090553;28;20315;-63
2022/10/31 11:20:30;;;;;;;15.60;9.23;;;;;;;15.50;71.20;101720.75;5091237;28;20063;-62
2022/10/31 11:23:04;;;;;;;15.18;10.00;;;;;;;15.51;71.02;101709.69;5086523;28;20413;-60
2022/10/31 11:25:33;;;;;;;22.05;10.95;;;;;;;15.52;71.38;101702.38;5087157;28;20051;-63
2022/10/31 11:28:01;;;;;;;21.75;12.10;;;;;;;15.53;71.36;101702.16;5085990;28;20401;-63
2022/10/31 11:30:30;;;;;;;17.58;10.65;;;;;;;15.54;71.50;101705.69;5085449;28;20158;-62
2022/10/31 11:32:59;;;;;;;16.95;9.90;;;;;;;15.54;71.30;101698.38;5086226;28;20048;-63
2022/10/31 11:35:30;;;;;;;17.65;9.93;;;;;;;15.55;71.34;101694.59;5090830;28;20517;-63
2022/10/31 11:38:01;;;;;;;16.48;9.55;;;;;;;15.57;71.42;101683.56;5086177;28;20059;-62
2022/10/31 11:40:30;;;;;;;18.33;9.50;;;;;;;15.58;71.59;101682.50;5095351;28;20048;-64